Terminal Aerodrome Forecast
Issued by NWS Corpus Christi, TX

Home | Current Version | Previous Version | Text Only | Print | Product List | Glossary On
Versions: 1 2 3 4 5 6 7 8 9 10 11 12 13 14 15 16
000
FTUS44 KCRP 271120
TAFCRP
TAF
KCRP 271120Z 2712/2812 14010KT P6SM SCT015 OVC250
      TEMPO 2712/2714 BKN015
     FM271400 16013KT P6SM SCT015 BKN024
     FM271800 15017G23KT P6SM SCT035
     FM280400 14010KT P6SM SCT008 BKN015=

USA.gov is the U.S. government's official web portal to all federal, state and local government web resources and services.